Time;durP1;ratioP1;P1;durP2;ratioP2;P2;SDS_P1;SDS_P2;PMS_P1;PMS_P2;Temp;Humidity;BMP_temperature;BMP_pressure;BME280_temperature;BME280_humidity;BME280_pressure;Samples;Min_cycle;Max_cycle;Signal;HPM_P1;HPM_P2
2021/05/23 00:00:42;;;;;;;7.47;1.40;;;9.20;99.90;;;;;;5057926;28;20037;-73
2021/05/23 00:03:13;;;;;;;9.57;1.73;;;9.10;99.90;;;;;;5059855;28;20047;-73
2021/05/23 00:05:41;;;;;;;7.57;1.33;;;9.10;99.90;;;;;;5058551;28;20033;-73
2021/05/23 00:08:14;;;;;;;6.10;1.30;;;9.10;99.90;;;;;;5058803;28;20053;-73
2021/05/23 00:11:00;;;;;;;5.22;1.08;;;9.10;99.90;;;;;;5060740;28;20044;-73
2021/05/23 00:13:47;;;;;;;7.75;1.20;;;9.10;99.90;;;;;;5056772;28;20045;-73
2021/05/23 00:16:20;;;;;;;10.70;1.73;;;9.10;99.90;;;;;;5057428;28;20187;-73
2021/05/23 00:18:49;;;;;;;11.90;1.83;;;9.00;99.90;;;;;;5061774;28;20414;-72
2021/05/23 00:21:20;;;;;;;7.85;1.83;;;8.90;99.90;;;;;;5057354;28;20494;-73
2021/05/23 00:23:46;;;;;;;9.20;1.83;;;8.90;99.90;;;;;;5059887;28;20037;-73
2021/05/23 00:26:13;;;;;;;4.88;1.15;;;8.90;99.90;;;;;;5058443;28;20055;-72
2021/05/23 00:28:41;;;;;;;9.20;1.42;;;8.80;99.90;;;;;;5058284;28;20055;-73
2021/05/23 00:31:08;;;;;;;4.90;1.00;;;8.80;99.90;;;;;;5060344;28;20045;-73
2021/05/23 00:33:34;;;;;;;9.60;1.40;;;8.80;99.90;;;;;;5058320;28;20537;-73
2021/05/23 00:36:06;;;;;;;7.80;1.40;;;8.80;99.90;;;;;;5056473;28;20036;-73
2021/05/23 00:38:32;;;;;;;7.05;1.33;;;8.70;99.90;;;;;;5059032;28;20041;-73
2021/05/23 00:40:58;;;;;;;17.10;1.90;;;8.70;99.90;;;;;;5059770;28;20642;-72
2021/05/23 00:43:23;;;;;;;8.63;1.30;;;8.60;99.90;;;;;;5059577;28;20032;-72
2021/05/23 00:45:50;;;;;;;8.68;1.27;;;8.60;99.90;;;;;;5059146;28;21077;-73
2021/05/23 00:48:18;;;;;;;10.60;1.67;;;8.50;99.90;;;;;;5056505;28;20059;-73
2021/05/23 00:50:44;;;;;;;9.20;1.38;;;8.50;99.90;;;;;;5059877;28;20044;-73
2021/05/23 00:53:10;;;;;;;9.82;1.98;;;8.50;99.90;;;;;;5055897;28;20437;-72
2021/05/23 00:55:36;;;;;;;6.57;1.10;;;8.40;99.90;;;;;;5056720;28;20037;-73
2021/05/23 00:58:03;;;;;;;7.30;1.38;;;8.30;99.90;;;;;;5060087;28;20034;-73
2021/05/23 01:00:41;;;;;;;9.95;1.40;;;8.30;99.90;;;;;;5055485;28;20469;-73
2021/05/23 01:03:45;;;;;;;10.15;2.25;;;8.30;99.90;;;;;;5056381;28;20375;-73
2021/05/23 01:06:16;;;;;;;5.40;1.10;;;8.20;99.90;;;;;;5058569;28;20433;-72
2021/05/23 01:08:42;;;;;;;7.68;2.33;;;8.20;99.90;;;;;;5057475;28;20051;-73
2021/05/23 01:11:27;;;;;;;5.80;1.38;;;8.20;99.90;;;;;;5058071;28;20037;-73
2021/05/23 01:13:59;;;;;;;9.23;2.00;;;8.20;99.90;;;;;;5056916;28;20045;-73
2021/05/23 01:16:36;;;;;;;7.18;1.73;;;8.00;99.90;;;;;;5056729;28;20049;-73
2021/05/23 01:19:10;;;;;;;8.27;1.20;;;8.00;99.90;;;;;;5055850;28;20124;-73
2021/05/23 01:21:40;;;;;;;6.35;2.10;;;8.00;99.90;;;;;;5056903;28;20132;-73
2021/05/23 01:24:13;;;;;;;9.55;1.40;;;8.00;99.90;;;;;;5085647;28;20091;-73
2021/05/23 01:26:48;;;;;;;5.25;1.30;;;7.90;99.90;;;;;;5056824;28;20089;-72
2021/05/23 01:29:14;;;;;;;10.27;2.25;;;7.90;99.90;;;;;;5058778;28;20090;-73
2021/05/23 01:31:41;;;;;;;7.75;1.60;;;7.80;99.90;;;;;;5058277;28;20093;-73
2021/05/23 01:34:08;;;;;;;10.95;1.85;;;7.80;99.90;;;;;;5056836;28;20377;-72
2021/05/23 01:36:38;;;;;;;8.18;1.75;;;7.90;99.90;;;;;;5056561;28;20041;-72
2021/05/23 01:39:10;;;;;;;8.52;1.77;;;7.80;99.90;;;;;;5059230;28;20516;-72
2021/05/23 01:41:37;;;;;;;12.10;1.77;;;7.80;99.90;;;;;;5058777;28;20037;-72
2021/05/23 01:44:03;;;;;;;4.68;0.90;;;7.70;99.90;;;;;;5057657;28;20045;-72
2021/05/23 01:46:30;;;;;;;7.43;1.67;;;7.70;99.90;;;;;;5056377;28;20462;-72
2021/05/23 01:48:56;;;;;;;5.63;1.20;;;7.60;99.90;;;;;;5059134;28;20040;-72
2021/05/23 01:51:23;;;;;;;7.78;1.50;;;7.60;99.90;;;;;;5055894;28;20047;-72
2021/05/23 01:53:49;;;;;;;7.30;1.60;;;7.60;99.90;;;;;;5056761;28;20041;-72
2021/05/23 01:56:16;;;;;;;12.52;1.95;;;7.60;99.90;;;;;;5056450;28;20076;-72
2021/05/23 01:58:42;;;;;;;7.57;1.63;;;7.50;99.90;;;;;;5057206;28;20083;-73
2021/05/23 02:01:08;;;;;;;7.47;1.25;;;7.50;99.90;;;;;;5054834;28;20460;-72
2021/05/23 02:03:34;;;;;;;7.78;1.73;;;7.50;99.90;;;;;;5057364;28;20107;-72
2021/05/23 02:06:02;;;;;;;7.28;1.50;;;7.50;99.90;;;;;;5057267;28;20038;-72
2021/05/23 02:08:31;;;;;;;5.97;1.90;;;7.40;99.90;;;;;;5053915;28;20049;-72
2021/05/23 02:11:00;;;;;;;7.45;1.40;;;7.50;99.90;;;;;;5057623;28;20161;-72
2021/05/23 02:13:26;;;;;;;9.32;2.17;;;7.40;99.90;;;;;;5059718;28;20058;-73
2021/05/23 02:15:53;;;;;;;8.60;1.70;;;7.40;99.90;;;;;;5055914;28;20053;-72
2021/05/23 02:18:18;;;;;;;8.70;1.90;;;7.40;99.90;;;;;;5055646;28;20063;-72
2021/05/23 02:20:45;;;;;;;19.27;3.13;;;7.40;99.90;;;;;;5054798;28;20039;-72
2021/05/23 02:23:18;;;;;;;9.07;1.80;;;7.30;99.90;;;;;;5056666;28;20517;-72
2021/05/23 02:25:44;;;;;;;8.40;2.33;;;7.30;99.90;;;;;;5065605;28;20037;-72
2021/05/23 02:28:12;;;;;;;7.78;1.55;;;7.30;99.90;;;;;;5062190;28;20040;-72
2021/05/23 02:30:52;;;;;;;6.47;1.83;;;7.30;99.90;;;;;;5065159;28;20414;-72
2021/05/23 02:33:20;;;;;;;14.57;2.42;;;7.30;99.90;;;;;;5062920;28;20075;-72
2021/05/23 02:35:49;;;;;;;12.30;2.05;;;7.20;99.90;;;;;;5061460;28;20043;-72
2021/05/23 02:38:17;;;;;;;5.57;1.50;;;7.20;99.90;;;;;;5061584;28;20068;-72
2021/05/23 02:40:45;;;;;;;13.98;2.15;;;7.20;99.90;;;;;;5065985;28;20152;-72
2021/05/23 02:43:12;;;;;;;10.43;2.10;;;7.10;99.90;;;;;;5071977;28;20048;-72
2021/05/23 02:45:39;;;;;;;7.90;1.50;;;7.10;99.90;;;;;;5059454;28;20112;-72
2021/05/23 02:48:06;;;;;;;15.63;3.00;;;7.10;99.90;;;;;;5065055;28;20044;-72
2021/05/23 02:50:37;;;;;;;11.70;2.30;;;7.10;99.90;;;;;;5061631;28;20036;-72
2021/05/23 02:53:07;;;;;;;10.88;2.50;;;7.10;99.90;;;;;;5063359;28;20040;-72
2021/05/23 02:55:34;;;;;;;13.70;2.47;;;7.00;99.90;;;;;;5064312;28;20044;-73
2021/05/23 02:58:06;;;;;;;7.50;2.13;;;7.00;99.90;;;;;;5064896;28;20448;-72
2021/05/23 03:00:32;;;;;;;5.63;1.30;;;6.90;99.90;;;;;;5064067;28;20041;-72
2021/05/23 03:02:58;;;;;;;4.07;1.27;;;6.90;99.90;;;;;;5066493;28;20047;-72
2021/05/23 03:05:24;;;;;;;10.13;2.10;;;6.90;99.90;;;;;;5063807;28;20040;-72
2021/05/23 03:07:53;;;;;;;14.00;2.58;;;6.90;99.90;;;;;;5066130;28;20131;-72
2021/05/23 03:10:32;;;;;;;9.60;2.83;;;6.90;99.90;;;;;;5065701;28;20052;-72
2021/05/23 03:13:00;;;;;;;7.25;2.30;;;6.90;99.90;;;;;;5056938;28;20039;-72
2021/05/23 03:15:28;;;;;;;8.52;2.10;;;6.90;99.90;;;;;;5082689;28;20367;-72
2021/05/23 03:17:54;;;;;;;8.43;2.83;;;6.90;99.90;;;;;;5087278;28;20090;-73
2021/05/23 03:20:25;;;;;;;4.70;1.40;;;6.90;99.90;;;;;;5052524;28;20041;-72
2021/05/23 03:22:53;;;;;;;4.50;1.70;;;6.80;99.90;;;;;;5082609;28;20041;-73
2021/05/23 03:25:20;;;;;;;5.00;1.98;;;6.80;99.90;;;;;;5055242;28;20048;-73
2021/05/23 03:27:46;;;;;;;11.65;2.22;;;6.80;99.90;;;;;;5056625;28;20048;-73
2021/05/23 03:30:16;;;;;;;13.30;3.78;;;6.70;99.90;;;;;;5056547;28;20537;-73
2021/05/23 03:32:42;;;;;;;10.27;1.73;;;6.70;99.90;;;;;;5056129;28;20068;-72
2021/05/23 03:35:09;;;;;;;4.72;2.00;;;6.70;99.90;;;;;;5054460;28;20037;-73
2021/05/23 03:37:36;;;;;;;12.95;2.50;;;6.70;99.90;;;;;;5054560;28;20491;-73
2021/05/23 03:40:05;;;;;;;9.23;2.97;;;6.80;99.90;;;;;;5055094;28;20080;-73
2021/05/23 03:42:31;;;;;;;5.45;1.33;;;6.80;99.90;;;;;;5054485;28;20044;-72
2021/05/23 03:44:57;;;;;;;11.10;1.75;;;6.80;99.90;;;;;;5056226;28;20039;-73
2021/05/23 03:47:22;;;;;;;8.05;1.75;;;6.80;99.90;;;;;;5056604;28;20047;-72
2021/05/23 03:49:48;;;;;;;9.27;2.05;;;6.80;99.90;;;;;;5055739;28;20035;-73
2021/05/23 03:52:14;;;;;;;15.60;2.72;;;6.80;99.90;;;;;;5056009;28;20040;-72
2021/05/23 03:54:40;;;;;;;5.90;2.25;;;6.90;99.90;;;;;;5055634;28;20049;-73
2021/05/23 03:57:06;;;;;;;8.93;2.65;;;7.00;99.90;;;;;;5054113;28;20869;-72
2021/05/23 03:59:32;;;;;;;10.27;2.50;;;7.10;99.90;;;;;;5054564;28;20041;-73
2021/05/23 04:01:58;;;;;;;10.68;2.72;;;7.20;99.90;;;;;;5051563;28;20067;-73
2021/05/23 04:04:24;;;;;;;11.10;1.90;;;7.30;99.90;;;;;;5081077;28;20482;-73
2021/05/23 04:06:50;;;;;;;11.52;2.25;;;7.50;99.90;;;;;;5055984;28;20056;-73
2021/05/23 04:09:20;;;;;;;8.32;2.03;;;7.70;99.90;;;;;;5083526;28;20037;-73
2021/05/23 04:11:50;;;;;;;10.43;2.33;;;7.80;99.90;;;;;;5053131;28;20041;-73
2021/05/23 04:14:15;;;;;;;7.95;2.05;;;7.80;99.90;;;;;;5057677;28;20115;-73
2021/05/23 04:16:41;;;;;;;9.68;2.40;;;7.80;99.90;;;;;;5053894;28;20080;-73
2021/05/23 04:19:07;;;;;;;9.63;3.13;;;7.80;99.90;;;;;;5051517;28;20494;-73
2021/05/23 04:21:34;;;;;;;11.90;2.17;;;7.90;99.90;;;;;;5053944;28;20041;-72
2021/05/23 04:24:01;;;;;;;7.43;1.92;;;7.90;99.90;;;;;;5054818;28;20151;-72
2021/05/23 04:26:27;;;;;;;10.63;1.98;;;8.00;99.90;;;;;;5057985;28;20047;-73
2021/05/23 04:28:52;;;;;;;8.85;2.13;;;8.00;99.90;;;;;;5055366;28;20308;-73
2021/05/23 04:31:18;;;;;;;13.65;2.20;;;8.00;99.90;;;;;;5057282;28;20446;-73
2021/05/23 04:33:44;;;;;;;9.07;1.77;;;8.00;99.90;;;;;;5056553;28;20403;-73
2021/05/23 04:36:09;;;;;;;10.35;2.00;;;8.00;99.90;;;;;;5056115;28;20167;-73
2021/05/23 04:38:35;;;;;;;7.20;1.63;;;8.10;99.90;;;;;;5058139;28;20047;-72
2021/05/23 04:41:01;;;;;;;3.63;1.60;;;8.10;99.90;;;;;;5058901;28;20032;-73
2021/05/23 04:43:26;;;;;;;8.70;1.88;;;8.30;99.90;;;;;;5058174;28;20505;-73
2021/05/23 04:45:52;;;;;;;7.95;2.20;;;8.80;99.90;;;;;;5057712;28;20090;-73
2021/05/23 04:48:17;;;;;;;6.00;1.40;;;9.20;99.90;;;;;;5059212;28;20085;-73
2021/05/23 04:50:43;;;;;;;5.63;1.70;;;9.40;99.90;;;;;;5057857;28;20097;-73
2021/05/23 04:53:09;;;;;;;8.68;2.13;;;9.60;99.90;;;;;;5058843;28;20099;-73
2021/05/23 04:55:35;;;;;;;10.82;2.13;;;9.80;99.90;;;;;;5059428;28;20558;-73
2021/05/23 04:58:02;;;;;;;9.10;2.17;;;9.80;99.90;;;;;;5058557;28;20487;-73
2021/05/23 05:00:28;;;;;;;8.65;2.10;;;9.80;99.90;;;;;;5058196;28;20045;-73
2021/05/23 05:02:54;;;;;;;6.10;2.10;;;9.80;99.90;;;;;;5062735;28;20063;-73
2021/05/23 05:05:19;;;;;;;10.35;3.65;;;9.80;99.90;;;;;;5058673;28;20085;-74
2021/05/23 05:07:45;;;;;;;8.82;1.80;;;9.70;99.90;;;;;;5060186;28;20045;-73
2021/05/23 05:10:11;;;;;;;20.13;4.22;;;9.70;99.90;;;;;;5061768;28;20028;-73
2021/05/23 05:12:38;;;;;;;7.60;2.20;;;9.70;99.90;;;;;;5058339;28;20476;-73
2021/05/23 05:15:06;;;;;;;8.68;2.10;;;9.70;99.90;;;;;;5060158;28;20093;-73
2021/05/23 05:17:32;;;;;;;6.90;2.30;;;9.70;99.90;;;;;;5057294;28;20041;-73
2021/05/23 05:19:57;;;;;;;11.35;2.47;;;9.70;99.90;;;;;;5059406;28;20044;-73
2021/05/23 05:22:23;;;;;;;10.43;2.63;;;9.70;99.90;;;;;;5058537;28;20045;-73
2021/05/23 05:24:49;;;;;;;8.98;2.88;;;9.70;99.90;;;;;;5056812;28;20841;-73
2021/05/23 05:27:15;;;;;;;8.60;3.17;;;9.70;99.90;;;;;;5060464;28;20052;-73
2021/05/23 05:29:40;;;;;;;8.18;2.97;;;9.70;99.90;;;;;;5056779;28;20054;-73
2021/05/23 05:32:06;;;;;;;11.25;3.95;;;9.70;99.90;;;;;;5054561;28;20480;-73
2021/05/23 05:34:32;;;;;;;8.73;3.78;;;9.70;99.90;;;;;;5055556;28;20041;-73
2021/05/23 05:36:58;;;;;;;11.02;3.88;;;9.70;99.90;;;;;;5059718;28;20128;-73
2021/05/23 05:39:23;;;;;;;8.25;4.35;;;9.70;99.90;;;;;;5057536;28;20048;-73
2021/05/23 05:41:50;;;;;;;10.38;4.20;;;9.80;99.90;;;;;;5056940;28;20119;-73
2021/05/23 05:44:15;;;;;;;10.50;4.38;;;9.80;99.90;;;;;;5057648;28;20116;-73
2021/05/23 05:46:42;;;;;;;10.10;4.18;;;9.80;99.90;;;;;;5056647;28;20055;-73
2021/05/23 05:49:07;;;;;;;12.32;5.10;;;9.80;99.90;;;;;;5058814;28;20085;-73
2021/05/23 05:51:33;;;;;;;12.15;5.28;;;9.80;99.90;;;;;;5057969;28;20056;-73
2021/05/23 05:53:59;;;;;;;11.57;4.90;;;9.70;99.90;;;;;;5056328;28;20036;-74
2021/05/23 05:56:24;;;;;;;11.60;4.80;;;9.90;99.90;;;;;;5057411;28;20120;-73
2021/05/23 05:58:50;;;;;;;8.80;4.65;;;10.30;99.90;;;;;;5056056;28;20446;-73
2021/05/23 06:01:16;;;;;;;13.63;4.78;;;10.80;99.90;;;;;;5058982;28;20050;-73
2021/05/23 06:03:42;;;;;;;12.75;5.10;;;11.40;99.90;;;;;;5055956;28;20041;-73
2021/05/23 06:06:08;;;;;;;14.45;5.70;;;11.80;99.90;;;;;;5053476;28;20045;-74
2021/05/23 06:08:34;;;;;;;14.70;5.15;;;12.00;99.90;;;;;;5054577;28;20123;-74
2021/05/23 06:10:59;;;;;;;14.00;5.45;;;12.10;99.20;;;;;;5052474;28;20044;-74
2021/05/23 06:13:26;;;;;;;10.77;5.13;;;12.10;99.10;;;;;;5056361;28;20045;-74
2021/05/23 06:15:53;;;;;;;11.73;4.50;;;12.20;99.00;;;;;;5057375;28;20483;-74
2021/05/23 06:18:24;;;;;;;12.82;4.80;;;12.20;98.90;;;;;;5054297;28;20027;-74
2021/05/23 06:20:50;;;;;;;12.90;4.93;;;12.40;98.90;;;;;;5055904;28;20044;-74
2021/05/23 06:23:16;;;;;;;13.00;4.60;;;12.60;98.80;;;;;;5057775;28;20376;-74
2021/05/23 06:25:41;;;;;;;10.25;4.65;;;12.70;98.30;;;;;;5056814;28;20040;-74
2021/05/23 06:28:07;;;;;;;15.50;4.72;;;12.80;97.30;;;;;;5053701;28;20055;-74
2021/05/23 06:30:33;;;;;;;16.30;4.65;;;13.00;97.40;;;;;;5057324;28;20055;-75
2021/05/23 06:32:58;;;;;;;11.30;4.43;;;12.90;97.50;;;;;;5055439;28;20502;-74
2021/05/23 06:35:24;;;;;;;7.88;3.80;;;12.90;97.50;;;;;;5088434;27;20048;-75
2021/05/23 06:37:50;;;;;;;12.80;4.07;;;12.80;97.20;;;;;;5062841;28;20095;-74
2021/05/23 06:40:16;;;;;;;11.02;4.20;;;12.60;97.50;;;;;;5059860;28;20563;-75
2021/05/23 06:42:41;;;;;;;14.43;3.92;;;12.60;97.70;;;;;;5057134;28;20054;-74
2021/05/23 06:45:07;;;;;;;16.50;4.05;;;12.60;97.50;;;;;;5059378;28;20067;-74
2021/05/23 06:47:33;;;;;;;17.67;4.35;;;12.60;97.40;;;;;;5057888;28;20045;-74
2021/05/23 06:49:59;;;;;;;17.15;5.35;;;12.60;97.30;;;;;;5056750;28;20105;-74
2021/05/23 06:52:26;;;;;;;16.40;5.25;;;12.60;97.00;;;;;;5058352;28;20036;-75
2021/05/23 06:54:52;;;;;;;13.93;3.13;;;12.60;97.20;;;;;;5057712;28;20068;-74
2021/05/23 06:57:17;;;;;;;9.85;3.40;;;12.50;97.50;;;;;;5086852;28;20040;-75
2021/05/23 06:59:43;;;;;;;14.20;4.25;;;12.60;97.30;;;;;;5052413;28;20063;-75
2021/05/23 07:02:09;;;;;;;11.98;4.15;;;12.50;97.50;;;;;;5049793;28;20036;-74
2021/05/23 07:04:35;;;;;;;11.10;3.95;;;12.50;97.70;;;;;;5055456;28;20041;-75
2021/05/23 07:07:00;;;;;;;10.50;3.90;;;12.50;97.70;;;;;;5050055;28;20048;-75
2021/05/23 07:09:26;;;;;;;12.35;4.22;;;12.60;97.60;;;;;;5054910;28;20130;-76
2021/05/23 07:11:52;;;;;;;12.20;4.43;;;12.50;97.70;;;;;;5053024;28;20120;-75
2021/05/23 07:14:18;;;;;;;13.70;4.15;;;12.60;97.90;;;;;;5053466;28;20063;-75
2021/05/23 07:16:44;;;;;;;17.08;4.53;;;12.60;97.70;;;;;;5051334;28;20048;-75
2021/05/23 07:19:10;;;;;;;10.95;3.53;;;12.60;97.90;;;;;;5061266;28;20051;-75
2021/05/23 07:21:36;;;;;;;11.73;3.25;;;12.50;97.30;;;;;;5056701;28;20039;-74
2021/05/23 07:24:01;;;;;;;8.27;3.05;;;12.60;97.50;;;;;;5060759;28;20446;-75
2021/05/23 07:26:27;;;;;;;10.77;3.95;;;12.70;97.00;;;;;;5054900;28;20033;-75
2021/05/23 07:28:53;;;;;;;11.05;4.20;;;12.80;96.80;;;;;;5057638;28;20128;-75
2021/05/23 07:31:20;;;;;;;12.30;4.45;;;12.90;96.40;;;;;;5056238;28;20037;-75
2021/05/23 07:33:45;;;;;;;9.75;3.55;;;12.90;96.60;;;;;;5056304;28;20034;-75
2021/05/23 07:36:12;;;;;;;10.63;3.42;;;12.90;96.10;;;;;;5058918;28;20032;-75
2021/05/23 07:38:39;;;;;;;5.45;3.08;;;12.90;95.60;;;;;;5052466;28;20037;-75
2021/05/23 07:41:05;;;;;;;8.48;3.33;;;12.70;95.80;;;;;;5054222;28;20047;-74
2021/05/23 07:43:31;;;;;;;10.30;3.60;;;12.70;96.10;;;;;;5055572;28;20037;-74
2021/05/23 07:45:57;;;;;;;7.85;3.40;;;12.70;96.20;;;;;;5055432;28;20482;-75
2021/05/23 07:48:22;;;;;;;9.32;3.47;;;12.80;96.00;;;;;;5054603;28;20037;-76
2021/05/23 07:50:48;;;;;;;6.88;2.97;;;12.90;96.10;;;;;;5086024;28;20062;-75
2021/05/23 07:53:15;;;;;;;7.60;3.33;;;12.80;95.60;;;;;;5056193;28;20090;-75
2021/05/23 07:55:42;;;;;;;8.27;3.55;;;12.80;95.00;;;;;;5054410;28;20049;-75
2021/05/23 07:58:08;;;;;;;7.45;3.72;;;12.70;95.10;;;;;;5055033;28;20380;-75
2021/05/23 08:00:34;;;;;;;7.55;3.28;;;12.70;95.20;;;;;;5052061;28;20051;-75
2021/05/23 08:03:00;;;;;;;6.95;3.33;;;12.70;95.50;;;;;;5057675;28;20115;-75
2021/05/23 08:05:27;;;;;;;9.32;3.30;;;12.70;95.70;;;;;;5055405;28;20372;-75
2021/05/23 08:07:54;;;;;;;9.52;3.92;;;12.70;96.10;;;;;;5085619;28;20044;-75
2021/05/23 08:10:20;;;;;;;7.90;3.67;;;12.70;96.30;;;;;;5056937;28;20044;-75
2021/05/23 08:12:46;;;;;;;10.80;3.72;;;12.80;96.60;;;;;;5061084;28;20085;-75
2021/05/23 08:15:13;;;;;;;8.95;4.07;;;12.80;96.00;;;;;;5059173;28;20103;-75
2021/05/23 08:17:41;;;;;;;8.77;4.88;;;12.90;96.20;;;;;;5058045;28;20391;-75
2021/05/23 08:20:07;;;;;;;14.70;6.43;;;13.10;96.60;;;;;;5057516;28;20506;-75
2021/05/23 08:22:33;;;;;;;8.57;5.72;;;13.20;96.60;;;;;;5054921;28;20059;-75
2021/05/23 08:25:01;;;;;;;9.43;5.80;;;13.30;96.60;;;;;;5061031;28;20074;-75
2021/05/23 08:27:26;;;;;;;10.23;5.88;;;13.30;96.30;;;;;;5057397;28;20549;-75
2021/05/23 08:29:52;;;;;;;9.32;5.18;;;13.40;96.50;;;;;;5057788;28;20079;-75
2021/05/23 08:32:19;;;;;;;6.47;3.83;;;13.50;96.40;;;;;;5060863;28;20111;-75
2021/05/23 08:34:45;;;;;;;4.82;4.22;;;13.60;96.00;;;;;;5063155;28;20149;-75
2021/05/23 08:37:10;;;;;;;6.95;5.03;;;13.60;96.20;;;;;;5057185;28;20523;-75
2021/05/23 08:39:36;;;;;;;6.20;4.80;;;13.70;96.20;;;;;;5058014;28;20060;-75
2021/05/23 08:42:02;;;;;;;9.93;5.22;;;13.50;96.00;;;;;;5057714;28;20037;-75
2021/05/23 08:44:28;;;;;;;7.13;5.55;;;13.40;96.40;;;;;;5056308;28;20029;-75
2021/05/23 08:46:53;;;;;;;6.32;5.28;;;13.20;96.50;;;;;;5057721;28;20118;-75
2021/05/23 08:49:22;;;;;;;5.45;4.75;;;13.20;96.70;;;;;;5056773;28;20414;-75
2021/05/23 08:51:49;;;;;;;8.88;4.93;;;13.20;96.60;;;;;;5061936;28;20059;-75
2021/05/23 08:54:15;;;;;;;6.88;5.03;;;13.20;96.70;;;;;;5055012;28;20044;-75
2021/05/23 08:56:42;;;;;;;7.63;5.90;;;13.10;97.20;;;;;;5060125;28;20119;-75
2021/05/23 08:59:09;;;;;;;6.20;5.63;;;13.20;97.70;;;;;;5065574;28;20040;-76
2021/05/23 09:01:36;;;;;;;8.43;5.38;;;13.20;97.10;;;;;;5063029;28;20067;-75
2021/05/23 09:04:04;;;;;;;6.30;5.75;;;13.30;97.40;;;;;;5064870;28;20099;-76
2021/05/23 09:06:34;;;;;;;7.53;5.97;;;13.40;97.30;;;;;;5066289;28;20050;-75
2021/05/23 09:09:02;;;;;;;8.15;6.05;;;13.40;97.80;;;;;;5065052;28;20043;-75
2021/05/23 09:11:28;;;;;;;8.55;6.82;;;13.50;97.50;;;;;;5064686;28;20056;-75
2021/05/23 09:13:55;;;;;;;8.45;7.10;;;13.50;97.60;;;;;;5066868;28;20039;-75
2021/05/23 09:16:22;;;;;;;7.50;6.72;;;13.60;97.00;;;;;;5062721;28;20049;-75
2021/05/23 09:18:50;;;;;;;7.97;7.18;;;13.60;97.30;;;;;;5064990;28;20107;-75
2021/05/23 09:21:29;;;;;;;8.25;7.22;;;13.70;97.30;;;;;;5061242;28;20774;-75
2021/05/23 09:24:00;;;;;;;8.75;7.85;;;13.90;96.90;;;;;;5054561;28;20036;-75
2021/05/23 09:26:41;;;;;;;9.15;8.35;;;13.90;96.60;;;;;;5055554;28;20567;-75
2021/05/23 09:29:28;;;;;;;10.52;9.43;;;13.90;96.90;;;;;;5054972;28;20047;-75
2021/05/23 09:32:06;;;;;;;12.43;9.93;;;13.80;97.10;;;;;;5053123;28;20129;-75
2021/05/23 09:34:32;;;;;;;11.05;9.35;;;13.90;97.10;;;;;;5042431;28;20041;-74
2021/05/23 09:37:00;;;;;;;9.13;8.18;;;14.10;97.50;;;;;;5042919;28;20487;-75
2021/05/23 09:39:36;;;;;;;9.60;8.13;;;14.10;96.50;;;;;;5049802;28;20047;-75
2021/05/23 09:42:04;;;;;;;6.72;6.07;;;14.00;96.90;;;;;;5053116;28;20037;-75
2021/05/23 09:44:31;;;;;;;5.82;4.47;;;14.00;96.70;;;;;;5052821;28;20037;-75
2021/05/23 09:47:09;;;;;;;6.13;4.20;;;14.10;95.90;;;;;;5052560;28;20480;-75
2021/05/23 09:49:45;;;;;;;3.65;3.08;;;14.30;95.80;;;;;;5056270;28;20052;-76
2021/05/23 09:52:13;;;;;;;3.92;2.55;;;14.80;95.80;;;;;;5054165;28;20041;-75
2021/05/23 09:54:47;;;;;;;3.35;2.65;;;15.10;94.50;;;;;;5054894;28;20487;-75
2021/05/23 09:57:18;;;;;;;5.47;3.85;;;15.20;94.30;;;;;;5056663;28;20069;-75
2021/05/23 09:59:44;;;;;;;4.75;4.30;;;15.30;94.20;;;;;;5057131;28;20049;-77
2021/05/23 10:02:12;;;;;;;4.75;4.32;;;15.40;94.60;;;;;;5055591;28;20053;-77
2021/05/23 10:04:40;;;;;;;3.42;3.13;;;15.60;95.00;;;;;;5059183;28;20048;-77
2021/05/23 10:07:10;;;;;;;4.07;2.95;;;15.90;92.80;;;;;;5059146;28;20493;-77
2021/05/23 10:09:37;;;;;;;2.88;2.30;;;15.90;93.20;;;;;;5058576;28;20071;-77
2021/05/23 10:12:06;;;;;;;2.42;0.95;;;15.90;92.90;;;;;;5055077;28;20105;-77
2021/05/23 10:14:34;;;;;;;0.32;0.22;;;15.80;91.60;;;;;;5054898;28;20960;-76
2021/05/23 10:17:01;;;;;;;0.93;0.20;;;15.50;91.20;;;;;;5057098;28;20741;-76
2021/05/23 10:19:31;;;;;;;0.47;0.20;;;15.00;90.30;;;;;;5056016;28;20039;-76
2021/05/23 10:22:03;;;;;;;3.55;0.57;;;14.60;91.10;;;;;;5062489;28;20793;-76
2021/05/23 10:24:38;;;;;;;0.70;0.20;;;14.40;92.30;;;;;;5066056;28;20064;-76
2021/05/23 10:27:10;;;;;;;0.50;0.20;;;13.80;93.00;;;;;;5068217;28;20052;-76
2021/05/23 10:29:38;;;;;;;0.80;0.40;;;13.30;94.20;;;;;;5088425;28;20584;-76
2021/05/23 10:32:16;;;;;;;0.45;0.20;;;13.00;95.00;;;;;;5059842;28;20402;-76
2021/05/23 10:34:46;;;;;;;0.77;0.30;;;12.80;95.80;;;;;;5090428;28;20041;-76
2021/05/23 10:37:13;;;;;;;1.25;0.20;;;12.60;96.50;;;;;;5059632;28;20060;-76
2021/05/23 10:39:47;;;;;;;0.52;0.20;;;12.50;97.10;;;;;;5050251;28;20165;-75
2021/05/23 10:42:13;;;;;;;0.75;0.30;;;12.40;97.40;;;;;;5058084;28;20049;-76
2021/05/23 10:44:41;;;;;;;3.17;0.52;;;12.30;97.60;;;;;;5062181;28;20045;-75
2021/05/23 10:47:17;;;;;;;0.90;0.25;;;12.30;98.20;;;;;;5058375;28;20048;-75
2021/05/23 10:49:57;;;;;;;2.53;0.50;;;12.30;98.40;;;;;;5062155;28;20621;-75
2021/05/23 10:52:27;;;;;;;1.00;0.30;;;12.40;98.80;;;;;;5062723;28;20066;-75
2021/05/23 10:54:57;;;;;;;0.98;0.40;;;12.60;98.60;;;;;;5060087;28;20857;-75
2021/05/23 10:57:23;;;;;;;0.70;0.30;;;12.70;98.60;;;;;;5054690;28;20543;-76
2021/05/23 11:00:03;;;;;;;5.45;0.20;;;12.90;98.50;;;;;;5056144;28;20127;-76
2021/05/23 11:02:42;;;;;;;1.35;0.30;;;13.00;98.20;;;;;;5061122;28;20362;-76
2021/05/23 11:05:15;;;;;;;0.55;0.22;;;13.00;97.60;;;;;;5051390;28;21019;-75
2021/05/23 11:07:52;;;;;;;0.95;0.30;;;13.00;97.70;;;;;;5061490;28;20050;-76
2021/05/23 11:10:19;;;;;;;1.15;0.30;;;12.80;97.40;;;;;;5060340;28;20036;-75
2021/05/23 11:12:52;;;;;;;3.42;0.70;;;12.70;98.10;;;;;;5060561;28;20120;-74
2021/05/23 11:15:18;;;;;;;2.63;0.50;;;12.60;98.10;;;;;;5061846;28;20037;-74
2021/05/23 11:17:49;;;;;;;1.98;0.63;;;12.40;98.70;;;;;;5057249;28;20059;-75
2021/05/23 11:20:24;;;;;;;1.40;0.60;;;12.20;98.40;;;;;;5061517;28;20040;-75
2021/05/23 11:22:55;;;;;;;2.17;0.60;;;12.10;98.50;;;;;;5060125;28;20159;-75
2021/05/23 11:25:28;;;;;;;1.13;0.47;;;11.90;99.10;;;;;;5058672;28;20057;-74
2021/05/23 11:27:59;;;;;;;1.30;0.60;;;11.70;99.50;;;;;;5060442;28;20044;-75
2021/05/23 11:30:27;;;;;;;0.80;0.52;;;11.70;99.90;;;;;;5057626;28;20072;-74
2021/05/23 11:33:05;;;;;;;1.30;0.70;;;11.60;99.90;;;;;;5060206;28;20049;-73
2021/05/23 11:35:33;;;;;;;1.58;1.20;;;11.70;99.90;;;;;;5061874;28;20544;-73
2021/05/23 11:38:00;;;;;;;1.73;0.80;;;11.70;99.90;;;;;;5085112;28;20501;-74
2021/05/23 11:40:40;;;;;;;1.77;0.98;;;11.70;99.90;;;;;;5060317;28;20556;-73
2021/05/23 11:43:12;;;;;;;2.15;0.88;;;11.50;99.90;;;;;;5060881;28;20066;-74
2021/05/23 11:45:43;;;;;;;3.13;0.50;;;11.40;99.90;;;;;;5055322;28;20044;-74
2021/05/23 11:48:08;;;;;;;1.58;0.80;;;11.30;99.90;;;;;;5061744;28;20040;-74
2021/05/23 11:50:35;;;;;;;1.42;0.70;;;11.30;99.90;;;;;;5068002;28;20055;-74
2021/05/23 11:53:01;;;;;;;1.13;0.57;;;11.30;99.90;;;;;;5063274;28;20067;-74
2021/05/23 11:55:29;;;;;;;0.90;0.40;;;11.30;99.90;;;;;;5062187;28;20029;-74
2021/05/23 11:58:08;;;;;;;0.88;0.55;;;11.20;99.90;;;;;;5068464;28;20048;-74
2021/05/23 12:00:34;;;;;;;0.47;0.38;;;11.30;99.90;;;;;;5061946;28;20097;-74
2021/05/23 12:03:00;;;;;;;0.70;0.52;;;11.30;99.90;;;;;;5065088;28;20040;-74
2021/05/23 12:05:39;;;;;;;1.95;0.40;;;11.50;99.90;;;;;;5063510;28;20048;-74
2021/05/23 12:08:20;;;;;;;1.50;0.60;;;11.60;99.90;;;;;;5065846;28;20534;-74
2021/05/23 12:11:07;;;;;;;3.00;0.85;;;11.70;99.90;;;;;;5058258;28;20052;-75
2021/05/23 12:13:41;;;;;;;1.58;0.55;;;11.90;99.90;;;;;;5061327;28;20044;-75
2021/05/23 12:16:08;;;;;;;2.05;0.98;;;12.00;99.90;;;;;;5067223;28;20052;-75
2021/05/23 12:18:42;;;;;;;1.20;0.75;;;12.10;99.90;;;;;;5061584;28;20053;-75
2021/05/23 12:21:12;;;;;;;1.95;1.10;;;12.20;99.90;;;;;;5060672;28;20076;-75
2021/05/23 12:23:39;;;;;;;6.43;1.08;;;12.30;99.90;;;;;;5064203;28;20056;-75
2021/05/23 12:26:08;;;;;;;2.75;0.90;;;12.40;99.90;;;;;;5090330;28;20605;-75
2021/05/23 12:28:48;;;;;;;3.95;1.00;;;12.30;99.90;;;;;;5066851;28;20110;-74
2021/05/23 12:31:19;;;;;;;1.85;0.85;;;12.30;99.90;;;;;;5063089;28;20063;-75
2021/05/23 12:33:55;;;;;;;4.88;1.08;;;12.30;99.90;;;;;;5062635;28;20033;-75
2021/05/23 12:36:27;;;;;;;2.97;1.13;;;12.40;99.90;;;;;;5059151;28;20032;-75
2021/05/23 12:39:07;;;;;;;4.65;1.52;;;12.60;99.90;;;;;;5059334;28;20089;-75
2021/05/23 12:41:40;;;;;;;3.40;1.50;;;12.80;99.90;;;;;;5059370;28;20040;-75
2021/05/23 12:44:20;;;;;;;2.35;1.52;;;12.90;99.90;;;;;;5064009;28;20399;-75
2021/05/23 12:46:47;;;;;;;2.00;1.27;;;12.90;99.90;;;;;;5062025;28;20029;-74
2021/05/23 12:49:20;;;;;;;1.80;1.27;;;13.00;99.90;;;;;;5064888;28;20125;-75
2021/05/23 12:51:48;;;;;;;4.30;1.35;;;13.20;99.90;;;;;;5066160;28;20040;-75
2021/05/23 12:54:31;;;;;;;3.28;1.20;;;13.30;99.90;;;;;;5061695;28;20048;-75